createdAt,value
2019-03-15T00:01:38.716Z,8.60
2019-03-15T00:04:07.205Z,8.60
2019-03-15T00:06:35.857Z,8.50
2019-03-15T00:09:07.418Z,8.60
2019-03-15T00:11:35.876Z,8.50
2019-03-15T00:14:04.418Z,8.50
2019-03-15T00:16:32.880Z,8.50
2019-03-15T00:19:01.363Z,8.50
2019-03-15T00:21:29.884Z,8.50
2019-03-15T00:23:58.311Z,8.50
2019-03-15T00:26:26.800Z,8.50
2019-03-15T00:28:55.222Z,8.50
2019-03-15T00:31:23.730Z,8.40
2019-03-15T00:33:52.168Z,8.40
2019-03-15T00:36:20.587Z,8.40
2019-03-15T00:38:49.046Z,8.40
2019-03-15T00:41:17.477Z,8.40
2019-03-15T00:43:49.069Z,8.40
2019-03-15T00:46:16.066Z,8.40
2019-03-15T00:48:44.501Z,8.40
2019-03-15T00:51:12.950Z,8.40
2019-03-15T00:53:41.358Z,8.30
2019-03-15T00:56:09.799Z,8.30
2019-03-15T00:58:38.224Z,8.30
2019-03-15T01:01:06.652Z,8.30
2019-03-15T01:03:35.089Z,8.30
2019-03-15T01:06:03.605Z,8.30
2019-03-15T01:08:32.045Z,8.30
2019-03-15T01:11:00.470Z,8.30
2019-03-15T01:13:28.984Z,8.30
2019-03-15T01:15:57.460Z,8.30
2019-03-15T01:18:25.862Z,8.30
2019-03-15T01:20:54.343Z,8.30
2019-03-15T01:23:24.322Z,8.30
2019-03-15T01:25:52.745Z,8.30
2019-03-15T01:28:21.172Z,8.30
2019-03-15T01:30:49.609Z,8.30
2019-03-15T01:33:18.048Z,8.30
2019-03-15T01:35:46.482Z,8.30
2019-03-15T01:38:14.950Z,8.30
2019-03-15T01:40:43.641Z,8.30
2019-03-15T01:43:12.229Z,8.30
2019-03-15T01:45:41.514Z,8.30
2019-03-15T01:48:10.056Z,8.30
2019-03-15T01:50:38.562Z,8.30
2019-03-15T01:53:06.994Z,8.30
2019-03-15T01:55:35.435Z,8.30
2019-03-15T01:58:03.856Z,8.30
2019-03-15T02:00:32.405Z,8.30
2019-03-15T02:03:02.330Z,8.30
2019-03-15T02:05:31.101Z,8.30
2019-03-15T02:08:00.652Z,8.30
2019-03-15T02:10:29.316Z,8.30
2019-03-15T02:12:57.793Z,8.30
2019-03-15T02:15:26.349Z,8.30
2019-03-15T02:17:54.842Z,8.30
2019-03-15T02:20:23.297Z,8.40
2019-03-15T02:22:51.752Z,8.30
2019-03-15T02:25:20.193Z,8.30
2019-03-15T02:27:48.680Z,8.30
2019-03-15T02:30:17.148Z,8.30
2019-03-15T02:32:45.575Z,8.40
2019-03-15T02:35:14.046Z,8.40
2019-03-15T02:37:42.465Z,8.40
2019-03-15T02:40:11.042Z,8.40
2019-03-15T02:42:39.447Z,8.40
2019-03-15T02:45:07.886Z,8.40
2019-03-15T02:47:36.356Z,8.40
2019-03-15T02:50:06.406Z,8.40
2019-03-15T02:52:34.850Z,8.40
2019-03-15T02:55:03.554Z,8.40
2019-03-15T02:57:31.993Z,8.40
2019-03-15T03:00:00.425Z,8.40
2019-03-15T03:02:28.874Z,8.30
2019-03-15T03:04:57.297Z,8.30
2019-03-15T03:07:25.817Z,8.40
2019-03-15T03:09:54.448Z,8.40
2019-03-15T03:12:23.054Z,8.40
2019-03-15T03:14:51.472Z,8.40
2019-03-15T03:17:19.893Z,8.40
2019-03-15T03:19:48.321Z,8.40
2019-03-15T03:22:16.838Z,8.40
2019-03-15T03:24:45.482Z,8.30
2019-03-15T03:27:13.910Z,8.30
2019-03-15T03:29:42.318Z,8.20
2019-03-15T03:32:11.171Z,8.20
2019-03-15T03:34:41.218Z,8.20
2019-03-15T03:37:09.723Z,8.10
2019-03-15T03:39:38.131Z,8.00
2019-03-15T03:42:06.612Z,8.00
2019-03-15T03:44:35.141Z,8.10
2019-03-15T03:47:03.610Z,8.10
2019-03-15T03:49:32.123Z,8.00
2019-03-15T03:52:00.554Z,8.00
2019-03-15T03:54:29.044Z,8.00
2019-03-15T03:56:57.516Z,7.90
2019-03-15T03:59:26.027Z,7.90
2019-03-15T04:01:54.442Z,7.90
2019-03-15T04:04:22.891Z,8.00
2019-03-15T04:06:51.313Z,8.00
2019-03-15T04:09:19.749Z,8.00
2019-03-15T04:11:55.199Z,8.00
2019-03-15T04:14:18.405Z,8.00
2019-03-15T04:16:46.814Z,8.00
2019-03-15T04:19:15.237Z,8.00
2019-03-15T04:21:43.649Z,8.00
2019-03-15T04:24:12.214Z,8.00
2019-03-15T04:26:40.642Z,8.00
2019-03-15T04:29:09.213Z,8.00
2019-03-15T04:31:37.613Z,8.00
2019-03-15T04:34:06.112Z,8.00
2019-03-15T04:36:34.616Z,8.00
2019-03-15T04:39:03.887Z,8.00
2019-03-15T04:41:32.308Z,8.00
2019-03-15T04:44:00.741Z,8.00
2019-03-15T04:46:29.190Z,8.00
2019-03-15T04:48:57.662Z,8.00
2019-03-15T04:51:26.083Z,8.10
2019-03-15T04:53:54.485Z,8.00
2019-03-15T04:56:22.921Z,8.00
2019-03-15T04:58:51.332Z,8.00
2019-03-15T05:01:19.767Z,8.00
2019-03-15T05:03:48.265Z,8.00
2019-03-15T05:06:16.706Z,8.00
2019-03-15T05:08:45.129Z,8.00
2019-03-15T05:11:13.570Z,8.00
2019-03-15T05:13:42.001Z,8.00
2019-03-15T05:16:10.705Z,8.00
2019-03-15T05:18:39.176Z,8.00
2019-03-15T05:21:07.697Z,8.00
2019-03-15T05:23:36.183Z,8.00
2019-03-15T05:26:04.714Z,8.00
2019-03-15T05:28:33.288Z,8.00
2019-03-15T05:31:01.798Z,8.00
2019-03-15T05:33:30.232Z,8.00
2019-03-15T05:35:58.690Z,8.00
2019-03-15T05:38:27.124Z,8.00
2019-03-15T05:40:55.554Z,8.00
2019-03-15T05:43:24.022Z,8.00
2019-03-15T05:45:52.456Z,8.00
2019-03-15T05:48:20.950Z,8.00
2019-03-15T05:50:49.394Z,8.10
2019-03-15T05:53:17.831Z,8.10
2019-03-15T05:55:46.245Z,8.10
2019-03-15T05:58:14.677Z,8.10
2019-03-15T06:00:43.094Z,8.10
2019-03-15T06:03:12.679Z,8.10
2019-03-15T06:05:41.223Z,8.10
2019-03-15T06:08:09.640Z,8.10
2019-03-15T06:10:38.057Z,8.10
2019-03-15T06:13:06.520Z,8.10
2019-03-15T06:15:35.007Z,8.10
2019-03-15T06:18:06.553Z,8.10
2019-03-15T06:20:33.665Z,8.10
2019-03-15T06:23:02.169Z,8.10
2019-03-15T06:25:30.604Z,8.10
2019-03-15T06:27:59.087Z,8.10
2019-03-15T06:30:27.558Z,8.10
2019-03-15T06:32:56.061Z,8.10
2019-03-15T06:35:24.593Z,8.10
2019-03-15T06:37:53.004Z,8.20
2019-03-15T06:40:21.421Z,8.20
2019-03-15T06:42:49.835Z,8.10
2019-03-15T06:45:18.268Z,8.10
2019-03-15T06:47:46.731Z,8.10
2019-03-15T06:50:15.378Z,8.10
2019-03-15T06:52:43.833Z,8.10
2019-03-15T06:55:12.516Z,8.20
2019-03-15T06:57:40.996Z,8.20
2019-03-15T07:00:13.835Z,8.20
2019-03-15T07:02:42.325Z,8.20
2019-03-15T07:05:12.389Z,8.20
2019-03-15T07:07:41.087Z,8.10
2019-03-15T07:10:10.787Z,8.10
2019-03-15T07:12:40.383Z,8.10
2019-03-15T07:15:13.679Z,8.10
2019-03-15T07:17:42.211Z,8.10
2019-03-15T07:20:13.339Z,8.10
2019-03-15T07:22:41.776Z,8.10
2019-03-15T07:25:11.480Z,8.10
2019-03-15T07:27:42.605Z,8.10
2019-03-15T07:30:12.685Z,8.10
2019-03-15T07:32:41.176Z,8.10
2019-03-15T07:35:09.769Z,8.00
2019-03-15T07:37:38.192Z,8.10
2019-03-15T07:40:09.449Z,8.10
2019-03-15T07:42:37.886Z,8.00
2019-03-15T07:45:08.675Z,8.00
2019-03-15T07:47:37.112Z,8.00
2019-03-15T07:50:08.566Z,8.00
2019-03-15T07:52:37.030Z,8.00
2019-03-15T07:55:08.340Z,8.00
2019-03-15T07:57:36.850Z,8.00
2019-03-15T08:00:11.088Z,8.00
2019-03-15T08:02:39.530Z,8.00
2019-03-15T08:05:09.011Z,8.00
2019-03-15T08:07:44.363Z,8.00
2019-03-15T08:10:10.702Z,8.00
2019-03-15T08:12:39.130Z,8.00
2019-03-15T08:15:09.859Z,8.00
2019-03-15T08:17:38.422Z,8.00
2019-03-15T08:20:09.816Z,8.00
2019-03-15T08:22:38.259Z,8.00
2019-03-15T08:25:08.608Z,8.00
2019-03-15T08:27:37.072Z,8.00
2019-03-15T08:30:11.116Z,8.00
2019-03-15T08:32:43.139Z,8.00
2019-03-15T08:35:10.548Z,8.00
2019-03-15T08:37:39.190Z,8.00
2019-03-15T08:40:09.900Z,8.00
2019-03-15T08:42:38.331Z,8.10
2019-03-15T08:45:12.520Z,8.10
2019-03-15T08:47:41.407Z,8.10
2019-03-15T08:50:15.398Z,8.10
2019-03-15T08:52:44.442Z,8.10
2019-03-15T08:55:15.708Z,8.10
2019-03-15T08:57:44.141Z,8.10
2019-03-15T09:00:17.486Z,8.10
2019-03-15T09:02:46.015Z,8.10
2019-03-15T09:05:16.361Z,8.20
2019-03-15T09:07:44.887Z,8.20
2019-03-15T09:10:22.763Z,8.30
2019-03-15T09:12:44.650Z,8.30
2019-03-15T09:15:13.729Z,8.30
2019-03-15T09:17:42.159Z,8.30
2019-03-15T09:20:15.023Z,8.30
2019-03-15T09:22:43.660Z,8.40
2019-03-15T09:25:19.830Z,8.40
2019-03-15T09:27:45.821Z,8.40
2019-03-15T09:30:23.037Z,8.50
2019-03-15T09:32:45.494Z,8.50
2019-03-15T09:35:14.080Z,8.50
2019-03-15T09:37:42.482Z,8.60
2019-03-15T09:40:15.513Z,8.60
2019-03-15T09:42:43.922Z,8.60
2019-03-15T09:45:18.921Z,8.60
2019-03-15T09:47:47.507Z,8.60
2019-03-15T09:50:26.602Z,8.60
2019-03-15T09:52:47.204Z,8.60
2019-03-15T09:55:15.738Z,8.60
2019-03-15T09:57:44.176Z,8.50
2019-03-15T10:00:16.661Z,8.50
2019-03-15T10:02:45.385Z,8.50
2019-03-15T10:05:13.977Z,8.50
2019-03-15T10:07:43.701Z,8.50
2019-03-15T10:10:18.818Z,8.60
2019-03-15T10:12:47.557Z,8.60
2019-03-15T10:15:17.075Z,8.60
2019-03-15T10:17:45.758Z,8.60
2019-03-15T10:20:14.823Z,8.60
2019-03-15T10:22:43.265Z,8.70
2019-03-15T10:25:15.883Z,8.70
2019-03-15T10:27:44.387Z,8.70
2019-03-15T10:30:18.090Z,8.70
2019-03-15T10:32:46.601Z,8.80
2019-03-15T10:35:15.086Z,8.90
2019-03-15T10:37:43.605Z,8.90
2019-03-15T10:40:15.136Z,8.90
2019-03-15T10:42:43.616Z,9.00
2019-03-15T10:45:12.106Z,9.00
2019-03-15T10:47:42.409Z,9.00
2019-03-15T10:50:13.123Z,9.10
2019-03-15T10:52:41.621Z,9.10
2019-03-15T10:55:10.405Z,9.10
2019-03-15T10:57:38.897Z,9.20
2019-03-15T11:00:20.975Z,9.20
2019-03-15T11:02:49.534Z,9.30
2019-03-15T11:05:17.976Z,9.30
2019-03-15T11:07:46.436Z,9.40
2019-03-15T11:10:14.998Z,9.40
2019-03-15T11:12:43.570Z,9.40
2019-03-15T11:15:13.339Z,9.50
2019-03-15T11:17:41.739Z,9.50
2019-03-15T11:20:11.146Z,9.50
2019-03-15T11:22:39.623Z,9.60
2019-03-15T11:25:09.525Z,9.70
2019-03-15T11:27:38.010Z,9.70
2019-03-15T11:30:08.734Z,9.80
2019-03-15T11:32:37.222Z,9.90
2019-03-15T11:35:07.805Z,10.00
2019-03-15T11:37:36.330Z,10.10
2019-03-15T11:40:08.003Z,10.10
2019-03-15T11:42:36.454Z,10.20
2019-03-15T11:45:06.657Z,10.20
2019-03-15T11:47:50.292Z,10.30
2019-03-15T11:50:14.254Z,10.40
2019-03-15T11:52:42.705Z,10.40
2019-03-15T11:55:11.370Z,10.50
2019-03-15T11:57:39.791Z,10.60
2019-03-15T12:00:16.422Z,10.60
2019-03-15T12:02:44.919Z,10.60
2019-03-15T12:05:14.007Z,10.70
2019-03-15T12:07:42.494Z,10.70
2019-03-15T12:10:13.421Z,10.80
2019-03-15T12:12:41.878Z,10.80
2019-03-15T12:15:14.161Z,10.80
2019-03-15T12:17:42.653Z,10.80
2019-03-15T12:20:12.027Z,10.90
2019-03-15T12:22:40.454Z,11.00
2019-03-15T12:25:15.016Z,11.00
2019-03-15T12:27:43.461Z,11.10
2019-03-15T12:30:13.873Z,11.10
2019-03-15T12:32:42.337Z,11.20
2019-03-15T12:35:14.475Z,11.20
2019-03-15T12:37:43.009Z,11.20
2019-03-15T12:40:16.325Z,11.20
2019-03-15T12:42:44.827Z,11.20
2019-03-15T12:45:14.299Z,11.30
2019-03-15T12:47:42.789Z,11.30
2019-03-15T12:50:13.347Z,11.30
2019-03-15T12:52:47.721Z,11.30
2019-03-15T12:55:13.185Z,11.40
2019-03-15T12:57:41.628Z,11.40
2019-03-15T13:00:20.843Z,11.40
2019-03-15T13:02:49.377Z,11.50
2019-03-15T13:05:17.869Z,11.50
2019-03-15T13:07:46.340Z,11.50
2019-03-15T13:10:19.381Z,11.50
2019-03-15T13:12:47.843Z,11.50
2019-03-15T13:15:17.321Z,11.50
2019-03-15T13:17:45.859Z,11.60
2019-03-15T13:20:15.309Z,11.60
2019-03-15T13:22:43.746Z,11.60
2019-03-15T13:25:12.797Z,11.60
2019-03-15T13:27:41.298Z,11.60
2019-03-15T13:30:11.860Z,11.70
2019-03-15T13:32:40.438Z,11.70
2019-03-15T13:35:09.457Z,11.60
2019-03-15T13:37:37.886Z,11.70
2019-03-15T13:40:09.750Z,11.70
2019-03-15T13:42:38.181Z,11.70
2019-03-15T13:45:09.577Z,11.70
2019-03-15T13:47:38.015Z,11.70
2019-03-15T13:50:15.197Z,11.70
2019-03-15T13:52:43.640Z,11.80
2019-03-15T13:55:12.150Z,11.80
2019-03-15T13:57:40.548Z,11.80
2019-03-15T14:00:12.068Z,11.80
2019-03-15T14:02:40.552Z,11.80
2019-03-15T14:05:09.476Z,11.90
2019-03-15T14:07:38.126Z,12.00
2019-03-15T14:10:09.713Z,11.90
2019-03-15T14:12:38.149Z,12.00
2019-03-15T14:15:14.329Z,12.00
2019-03-15T14:17:42.759Z,12.00
2019-03-15T14:20:12.060Z,12.10
2019-03-15T14:22:40.551Z,12.10
2019-03-15T14:25:11.910Z,12.10
2019-03-15T14:27:40.385Z,12.10
2019-03-15T14:30:11.781Z,12.10
2019-03-15T14:32:40.233Z,12.10
2019-03-15T14:35:09.970Z,12.10
2019-03-15T14:37:38.648Z,12.20
2019-03-15T14:40:09.069Z,12.20
2019-03-15T14:42:37.775Z,12.20
2019-03-15T14:45:09.089Z,12.20
2019-03-15T14:47:37.628Z,12.20
2019-03-15T14:50:14.030Z,12.20
2019-03-15T14:52:42.553Z,12.20
2019-03-15T14:55:12.594Z,12.20
2019-03-15T14:57:51.386Z,12.20
2019-03-15T15:00:16.148Z,12.20
2019-03-15T15:02:44.631Z,12.20
2019-03-15T15:05:13.294Z,12.20
2019-03-15T15:07:41.794Z,12.30
2019-03-15T15:10:12.363Z,12.30
2019-03-15T15:12:40.802Z,12.30
2019-03-15T15:15:16.085Z,12.30
2019-03-15T15:17:44.555Z,12.30
2019-03-15T15:20:13.484Z,12.30
2019-03-15T15:22:41.989Z,12.30
2019-03-15T15:25:11.670Z,12.40
2019-03-15T15:27:40.182Z,12.40
2019-03-15T15:30:13.746Z,12.40
2019-03-15T15:32:42.346Z,12.40
2019-03-15T15:35:11.813Z,12.50
2019-03-15T15:37:40.326Z,12.50
2019-03-15T15:40:13.676Z,12.50
2019-03-15T15:42:42.321Z,12.50
2019-03-15T15:45:11.808Z,12.50
2019-03-15T15:47:40.319Z,12.50
2019-03-15T15:50:10.798Z,12.50
2019-03-15T15:52:39.234Z,12.50
2019-03-15T15:55:13.000Z,12.50
2019-03-15T15:57:41.439Z,12.50
2019-03-15T16:00:16.731Z,12.50
2019-03-15T16:02:45.264Z,12.50
2019-03-15T16:05:13.961Z,12.50
2019-03-15T16:07:42.518Z,12.50
2019-03-15T16:10:17.919Z,12.50
2019-03-15T16:12:45.285Z,12.50
2019-03-15T16:15:19.709Z,12.50
2019-03-15T16:17:48.117Z,12.50
2019-03-15T16:20:16.629Z,12.50
2019-03-15T16:22:45.132Z,12.50
2019-03-15T16:25:13.938Z,12.50
2019-03-15T16:27:42.416Z,12.50
2019-03-15T16:30:18.189Z,12.50
2019-03-15T16:32:46.597Z,12.50
2019-03-15T16:35:15.195Z,12.50
2019-03-15T16:37:43.716Z,12.50
2019-03-15T16:40:14.373Z,12.50
2019-03-15T16:42:42.792Z,12.40
2019-03-15T16:45:16.268Z,12.50
2019-03-15T16:47:44.770Z,12.50
2019-03-15T16:50:13.815Z,12.40
2019-03-15T16:52:42.229Z,12.40
2019-03-15T16:55:13.526Z,12.40
2019-03-15T16:57:42.028Z,12.40
2019-03-15T17:00:15.539Z,12.40
2019-03-15T17:02:44.068Z,12.40
2019-03-15T17:05:13.538Z,12.50
2019-03-15T17:07:42.446Z,12.40
2019-03-15T17:10:12.139Z,12.40
2019-03-15T17:12:40.582Z,12.40
2019-03-15T17:15:18.005Z,12.40
2019-03-15T17:17:46.456Z,12.40
2019-03-15T17:20:14.969Z,12.40
2019-03-15T17:22:43.433Z,12.40
2019-03-15T17:25:12.397Z,12.40
2019-03-15T17:27:40.839Z,12.40
2019-03-15T17:30:18.453Z,12.40
2019-03-15T17:32:46.902Z,12.40
2019-03-15T17:35:17.552Z,12.40
2019-03-15T17:37:46.102Z,12.40
2019-03-15T17:40:18.794Z,12.40
2019-03-15T17:42:47.234Z,12.40
2019-03-15T17:45:15.832Z,12.40
2019-03-15T17:47:44.377Z,12.40
2019-03-15T17:50:16.985Z,12.40
2019-03-15T17:52:45.550Z,12.30
2019-03-15T17:55:15.367Z,12.40
2019-03-15T17:57:45.730Z,12.40
2019-03-15T18:00:20.815Z,12.40
2019-03-15T18:02:49.341Z,12.40
2019-03-15T18:05:17.782Z,12.40
2019-03-15T18:07:46.350Z,12.30
2019-03-15T18:10:15.042Z,12.40
2019-03-15T18:12:43.536Z,12.40
2019-03-15T18:15:12.413Z,12.40
2019-03-15T18:17:40.936Z,12.30
2019-03-15T18:20:10.463Z,12.30
2019-03-15T18:22:39.009Z,12.30
2019-03-15T18:25:08.726Z,12.40
2019-03-15T18:27:37.298Z,12.40
2019-03-15T18:30:08.919Z,12.40
2019-03-15T18:32:37.459Z,12.40
2019-03-15T18:35:07.079Z,12.40
2019-03-15T18:37:35.600Z,12.40
2019-03-15T18:40:07.143Z,12.40
2019-03-15T18:42:35.683Z,12.40
2019-03-15T18:45:06.861Z,12.40
2019-03-15T18:47:35.385Z,12.40
2019-03-15T18:50:06.399Z,12.40
2019-03-15T18:52:34.903Z,12.40
2019-03-15T18:55:03.719Z,12.40
2019-03-15T18:57:32.146Z,12.40
2019-03-15T19:00:00.682Z,12.40
2019-03-15T19:02:29.171Z,12.40
2019-03-15T19:04:57.656Z,12.30
2019-03-15T19:07:26.076Z,12.40
2019-03-15T19:09:54.549Z,12.40
2019-03-15T19:12:23.011Z,12.40
2019-03-15T19:14:51.511Z,12.40
2019-03-15T19:17:19.960Z,12.40
2019-03-15T19:19:48.456Z,12.40
2019-03-15T19:22:16.936Z,12.30
2019-03-15T19:24:45.396Z,12.40
2019-03-15T19:27:13.853Z,12.40
2019-03-15T19:29:53.080Z,12.40
2019-03-15T19:32:12.538Z,12.40
2019-03-15T19:34:41.014Z,12.40
2019-03-15T19:37:09.534Z,12.40
2019-03-15T19:39:37.981Z,12.40
2019-03-15T19:42:06.538Z,12.40
2019-03-15T19:44:35.047Z,12.40
2019-03-15T19:47:03.561Z,12.40
2019-03-15T19:49:32.029Z,12.40
2019-03-15T19:52:00.565Z,12.40
2019-03-15T19:54:31.757Z,12.40
2019-03-15T19:56:59.250Z,12.40
2019-03-15T19:59:27.681Z,12.40
2019-03-15T20:01:56.139Z,12.40
2019-03-15T20:04:24.604Z,12.40
2019-03-15T20:06:53.046Z,12.40
2019-03-15T20:09:21.740Z,12.40
2019-03-15T20:11:50.304Z,12.40
2019-03-15T20:14:18.847Z,12.30
2019-03-15T20:16:47.299Z,12.30
2019-03-15T20:19:16.558Z,12.30
2019-03-15T20:21:45.062Z,12.30
2019-03-15T20:24:13.517Z,12.30
2019-03-15T20:26:42.094Z,12.30
2019-03-15T20:29:10.580Z,12.30
2019-03-15T20:31:39.025Z,12.30
2019-03-15T20:34:07.473Z,12.30
2019-03-15T20:36:35.941Z,12.20
2019-03-15T20:39:06.461Z,12.20
2019-03-15T20:41:34.959Z,12.20
2019-03-15T20:44:03.568Z,12.20
2019-03-15T20:46:35.992Z,12.20
2019-03-15T20:49:02.295Z,12.20
2019-03-15T20:51:30.749Z,12.20
2019-03-15T20:53:59.236Z,12.20
2019-03-15T20:56:27.644Z,12.20
2019-03-15T20:58:56.103Z,12.20
2019-03-15T21:01:24.556Z,12.20
2019-03-15T21:03:56.186Z,12.20
2019-03-15T21:06:23.188Z,12.20
2019-03-15T21:08:51.638Z,12.10
2019-03-15T21:11:20.118Z,12.10
2019-03-15T21:13:48.556Z,12.10
2019-03-15T21:16:18.421Z,12.10
2019-03-15T21:18:47.132Z,12.10
2019-03-15T21:21:15.665Z,12.10
2019-03-15T21:23:44.138Z,12.10
2019-03-15T21:26:12.597Z,12.00
2019-03-15T21:28:41.075Z,12.10
2019-03-15T21:31:09.580Z,12.10
2019-03-15T21:33:38.131Z,12.10
2019-03-15T21:36:06.669Z,12.10
2019-03-15T21:38:47.764Z,12.10
2019-03-15T21:41:05.572Z,12.10
2019-03-15T21:43:34.108Z,12.10
2019-03-15T21:46:02.627Z,12.00
2019-03-15T21:48:31.085Z,12.00
2019-03-15T21:50:59.582Z,12.10
2019-03-15T21:53:28.006Z,12.10
2019-03-15T21:55:56.484Z,12.00
2019-03-15T21:58:25.018Z,12.00
2019-03-15T22:01:02.148Z,12.10
2019-03-15T22:03:23.709Z,12.10
2019-03-15T22:05:52.189Z,12.10
2019-03-15T22:08:20.795Z,12.10
2019-03-15T22:10:49.205Z,12.10
2019-03-15T22:13:17.647Z,12.10
2019-03-15T22:15:46.125Z,12.10
2019-03-15T22:18:14.609Z,12.10
2019-03-15T22:20:43.156Z,12.10
2019-03-15T22:23:11.637Z,12.10
2019-03-15T22:25:40.052Z,12.10
2019-03-15T22:28:08.600Z,12.20
2019-03-15T22:30:37.056Z,12.20
2019-03-15T22:33:05.597Z,12.20
2019-03-15T22:35:34.090Z,12.20
2019-03-15T22:38:02.621Z,12.10
2019-03-15T22:40:31.204Z,12.10
2019-03-15T22:42:59.784Z,12.20
2019-03-15T22:45:28.306Z,12.10
2019-03-15T22:47:56.834Z,12.10
2019-03-15T22:50:25.353Z,12.10
2019-03-15T22:52:53.783Z,12.10
2019-03-15T22:55:22.258Z,12.20
2019-03-15T22:57:59.780Z,12.20
2019-03-15T23:00:22.654Z,12.10
2019-03-15T23:02:51.290Z,12.20
2019-03-15T23:05:19.920Z,12.20
2019-03-15T23:07:48.341Z,12.10
2019-03-15T23:10:16.941Z,12.20
2019-03-15T23:12:45.417Z,12.10
2019-03-15T23:15:13.980Z,12.10
2019-03-15T23:17:42.566Z,12.10
2019-03-15T23:20:12.409Z,12.10
2019-03-15T23:22:40.849Z,12.10
2019-03-15T23:25:09.606Z,12.10
2019-03-15T23:27:38.014Z,12.00
2019-03-15T23:30:11.737Z,12.00
2019-03-15T23:32:40.256Z,12.00
2019-03-15T23:35:08.913Z,12.00
2019-03-15T23:37:37.375Z,12.00
2019-03-15T23:40:08.344Z,12.00
2019-03-15T23:42:36.777Z,12.00
2019-03-15T23:45:07.243Z,12.00
2019-03-15T23:47:35.738Z,12.00
2019-03-15T23:50:06.573Z,12.00
2019-03-15T23:52:35.018Z,12.00
2019-03-15T23:55:03.764Z,12.00
2019-03-15T23:57:32.269Z,12.00
